AirNav   Duncan Aviation - Near you to keep you flying
 
 1045 users online  

CA18 Sunrise Dusters Airport
Robbins, California, USA

GOING TO ROBBINS?


FAA INFORMATION EFFECTIVE 01 DECEMBER 2022

Location

FAA Identifier: CA18
Lat/Long: 38-52-19.6350N 121-42-35.8720W
38-52.327250N 121-42.597867W
38.8721208,-121.7099644
(estimated)
Elevation: 24 ft. / 7 m (estimated)
Variation: 16E (1985)
Time zone: UTC -8 (UTC -7 during Daylight Saving Time)
Zip code: 95676

Airport Operations

Airport use: Private use. Permission required prior to landing
Activation date: 04/1948
Control tower: no
ARTCC: OAKLAND CENTER
FSS: RANCHO MURIETA FLIGHT SERVICE STATION
Attendance: MON-SAT 0800-1700
Wind indicator: yes
Segmented circle: no

Airport Communications

WX ASOS at SMF (12 nm SE): PHONE 916-649-3996
WX ASOS at MYV (15 nm NE): 118.475 (530-742-0695)
WX AWOS-3 at LHM (17 nm E): 124.25 (916-645-0698)
WX AWOS-3P at DWA (19 nm S): 125.775 (530-750-2759)
WX AWOS-3 at MCC (19 nm SE): 125.975 (916-641-1272)

Nearby radio navigation aids

VOR radial/distance  VOR name  Freq  Var
MYVr189/15.0MARYSVILLE VOR/DME110.8016E
MCCr294/18.9MC CLELLAN VOR/DME109.2017E
ILAr111/19.0WILLIAMS VORTAC114.4018E
SACr327/26.8SACRAMENTO VORTAC115.2017E

Airport Services

Airframe service: NONE
Powerplant service: NONE

Runway Information

Runway 14/32

Dimensions: 3100 x 35 ft. / 945 x 11 m
Surface: gravel/treated
RUNWAY 14  RUNWAY 32
Traffic pattern: rightleft
Obstructions: plinesplines

Airport Ownership and Management from official FAA records

Ownership: Privately-owned
Owner: CHRIS TAYLOR
PO BOX 98
ROBBINS, CA 95676
Phone 530-738-4200
Manager: CHRIS TAYLOR
PO BOX 98
ROBBINS, CA 95676
Phone 530-738-4200

Airport Operational Statistics

Aircraft based on the field: 6
Single engine airplanes: 6
    

Additional Remarks

FOR CD CTC NORCAL APCH AT 916-361-6874.

Instrument Procedures

There are no published instrument procedures at CA18.

Some nearby airports with instrument procedures:

KSMF - Sacramento International Airport (12 nm SE)
O41 - Watts-Woodland Airport (14 nm SW)
KMYV - Yuba County Airport (15 nm NE)
KLHM - Lincoln Regional Airport/Karl Harder Field (17 nm E)
KDWA - Yolo County Airport (19 nm S)
KMCC - Mc Clellan Airfield (19 nm SE)
 
Loc | Ops | Rwys | IFR | FBO | Links
Com | Nav | Svcs | Stats | Notes

Sonoma Jet Center
 
Area around CA18 (Sunrise Dusters Airport)
 
Road maps at: MapQuest Bing Google
 
Aerial photo
No photo
 
Sectional chart

 
Airport distance calculator
Flying to Sunrise Dusters Airport? Find the distance to fly.

From to CA18

Sunrise and sunset
Times for 06-Dec-2022
 Local
(UTC-8)
 Zulu
(UTC)
Morning civil twilight06:4314:43
Sunrise07:1215:12
Sunset16:4400:44
Evening civil twilight17:1301:13

Current date and time
Zulu (UTC)  07-Dec-2022 03:41:57
Local (UTC-8)  06-Dec-2022 19:41:57
 
METAR
KSMF 
12nm SE 
070253Z 31006KT 10SM CLR 08/05 A3008 RMK AO2 SLP185 T00830050 53006
KLHM 
17nm E 
070315Z AUTO 05003KT 10SM CLR 06/05 A3008 RMK AO1
KDWA 
19nm S 
070315Z AUTO 33004KT 10SM FEW028 SCT033 BKN041 08/06 A3011 RMK AO2
KMCC 
19nm SE 
070315Z AUTO 00000KT 10SM CLR 09/06 A3008 RMK AO2
KBAB 
20nm NE 
070255Z AUTO 04003KT 10SM CLR 07/05 A3007 RMK AO2 SLP186 T00650045 51006 $
KEDU 
21nm S 
070315Z AUTO 00000KT 10SM CLR 09/06 A3010 RMK AO1
TAF
KSMF 
12nm SE 
061734Z 0618/0718 33007KT P6SM SCT020 BKN050 BKN100 FM062300 VRB05KT P6SM SCT250
KMCC 
19nm SE 
061734Z 0618/0718 31005KT P6SM SCT040 BKN050 BKN150 FM062000 VRB05KT P6SM SCT250 FM071100 VRB03KT 6SM BR SKC FM071500 VRB03KT 4SM BR SKC
NOTAMs
Click for the latest NOTAMs
NOTAMs are issued by the DoD/FAA and will open in a separate window not controlled by AirNav.

 

 
 

Would you like to see your business listed on this page?

 If your business provides an interesting product or service to pilots, flight crews, aircraft, or users of the Sunrise Dusters Airport, you should consider listing it here.  To start the listing process, click on the button below
 
Add a business
 

Other Pages about Sunrise Dusters Airport

Update a link
 
Copyright © AirNav, LLC. All rights reserved. Privacy Policy  Contact